createdAt,value
2023-06-30T15:17:53.704Z,2.30
2023-06-30T15:20:34.463Z,1.90
2023-06-30T15:23:09.983Z,2.30
2023-06-30T15:28:31.197Z,2.40
2023-06-30T15:31:11.708Z,2.00
2023-06-30T15:33:49.662Z,2.67
2023-06-30T15:36:22.456Z,2.38
2023-06-30T15:39:13.879Z,1.98
2023-06-30T15:41:54.039Z,1.90
2023-06-30T15:44:31.926Z,2.17
2023-06-30T15:47:02.695Z,2.40
2023-06-30T15:49:32.703Z,2.70
2023-06-30T15:52:18.400Z,2.00
2023-06-30T15:55:08.269Z,2.50
2023-06-30T15:57:38.637Z,2.65
2023-06-30T16:00:21.194Z,2.60
2023-06-30T16:03:07.508Z,2.47
2023-06-30T16:05:42.628Z,2.95
2023-06-30T16:08:18.072Z,3.05
2023-06-30T16:10:53.508Z,2.90
2023-06-30T16:13:25.981Z,2.53
2023-06-30T16:15:59.054Z,2.58
2023-06-30T16:18:30.814Z,2.53
2023-06-30T16:21:03.859Z,2.92
2023-06-30T16:23:31.088Z,2.78
2023-06-30T16:26:08.864Z,2.72
2023-06-30T16:28:47.425Z,3.13
2023-06-30T16:31:28.706Z,2.78
2023-06-30T16:34:08.482Z,2.38
2023-06-30T16:36:43.120Z,2.90
2023-06-30T16:39:12.987Z,2.97
2023-06-30T16:42:00.095Z,3.42
2023-06-30T16:44:31.143Z,2.80
2023-06-30T16:47:09.116Z,2.95
2023-06-30T16:49:41.217Z,3.08
2023-06-30T16:52:11.217Z,3.20
2023-06-30T16:54:45.876Z,2.50
2023-06-30T16:57:21.288Z,3.78
2023-06-30T16:59:56.179Z,2.92
2023-06-30T17:02:46.305Z,2.97
2023-06-30T17:05:23.661Z,3.47
2023-06-30T17:08:03.233Z,2.80
2023-06-30T17:10:46.731Z,2.72
2023-06-30T17:13:14.146Z,2.58
2023-06-30T17:15:44.408Z,2.50
2023-06-30T17:18:19.485Z,2.30
2023-06-30T17:20:57.276Z,3.10
2023-06-30T17:23:31.494Z,3.00
2023-06-30T17:26:06.163Z,2.72
2023-06-30T17:28:39.825Z,2.55
2023-06-30T17:31:09.851Z,2.88
2023-06-30T17:33:39.117Z,2.72
2023-06-30T17:36:16.190Z,2.78
2023-06-30T17:38:48.000Z,3.08
2023-06-30T17:41:25.594Z,2.88
2023-06-30T17:44:00.927Z,2.10
2023-06-30T17:46:35.918Z,2.25
2023-06-30T17:49:31.566Z,2.58
2023-06-30T17:52:04.578Z,2.13
2023-06-30T17:54:40.494Z,2.25
2023-06-30T17:57:09.762Z,2.35
2023-06-30T17:59:44.102Z,1.67
2023-06-30T18:02:22.907Z,2.10
2023-06-30T18:04:55.378Z,1.42
2023-06-30T18:07:33.026Z,2.08
2023-06-30T18:10:05.418Z,1.55
2023-06-30T18:12:35.133Z,1.42
2023-06-30T18:15:12.421Z,1.52
2023-06-30T18:17:44.922Z,1.45
2023-06-30T18:20:28.351Z,1.77
2023-06-30T18:23:03.276Z,2.00
2023-06-30T18:25:43.578Z,2.30
2023-06-30T18:28:14.423Z,2.88
2023-06-30T18:30:46.016Z,2.25
2023-06-30T18:33:12.860Z,1.75
2023-06-30T18:35:55.050Z,2.38
2023-06-30T18:38:33.137Z,1.95
2023-06-30T18:41:05.632Z,1.90
2023-06-30T18:43:37.573Z,1.80
2023-06-30T18:46:21.044Z,1.67
2023-06-30T18:48:56.189Z,2.05
2023-06-30T18:51:35.885Z,2.03
2023-06-30T18:54:08.698Z,1.20
2023-06-30T18:56:45.679Z,1.52
2023-06-30T18:59:18.434Z,2.05
2023-06-30T19:01:53.280Z,1.95
2023-06-30T19:04:25.350Z,1.58
2023-06-30T19:07:05.208Z,1.65
2023-06-30T19:09:37.297Z,1.98
2023-06-30T19:12:11.385Z,2.03
2023-06-30T19:14:57.380Z,2.08
2023-06-30T19:17:35.331Z,2.08
2023-06-30T19:20:11.614Z,1.92
2023-06-30T19:22:47.443Z,2.13
2023-06-30T19:25:16.976Z,2.03
2023-06-30T19:27:52.762Z,1.98
2023-06-30T19:30:30.935Z,2.00
2023-06-30T19:33:09.363Z,1.70
2023-06-30T19:35:38.973Z,2.95
2023-06-30T19:38:11.675Z,2.15
2023-06-30T19:40:40.805Z,2.00
2023-06-30T19:43:15.702Z,2.15
2023-06-30T19:45:50.740Z,2.03
2023-06-30T19:48:26.403Z,2.05
2023-06-30T19:51:01.432Z,2.00
2023-06-30T19:53:28.667Z,2.15
2023-06-30T19:56:06.587Z,2.40
2023-06-30T19:58:38.671Z,2.22
2023-06-30T20:01:16.371Z,1.63
2023-06-30T20:03:51.409Z,2.22
2023-06-30T20:06:26.502Z,1.92
2023-06-30T20:09:01.347Z,2.47
2023-06-30T20:11:33.474Z,2.25
2023-06-30T20:14:11.110Z,1.77
2023-06-30T20:16:46.299Z,2.53
2023-06-30T20:19:21.088Z,2.20
2023-06-30T20:21:56.524Z,2.80
2023-06-30T20:24:30.371Z,2.72
2023-06-30T20:27:05.369Z,2.42
2023-06-30T20:29:39.982Z,2.10
2023-06-30T20:32:27.482Z,2.70
2023-06-30T20:34:59.593Z,3.22
2023-06-30T20:37:32.373Z,2.63
2023-06-30T20:40:03.804Z,3.20
2023-06-30T20:42:41.926Z,2.97
2023-06-30T20:45:16.981Z,2.63
2023-06-30T20:47:51.917Z,2.45
2023-06-30T20:50:31.181Z,2.97
2023-06-30T20:53:06.831Z,2.30
2023-06-30T20:55:44.602Z,2.38
2023-06-30T20:58:18.795Z,3.35
2023-06-30T21:00:53.174Z,2.53
2023-06-30T21:03:30.138Z,3.03
2023-06-30T21:06:02.470Z,3.10
2023-06-30T21:08:48.678Z,3.53
2023-06-30T21:11:22.365Z,3.05
2023-06-30T21:13:52.081Z,3.10
2023-06-30T21:16:30.242Z,3.08
2023-06-30T21:18:59.548Z,4.03
2023-06-30T21:21:33.515Z,2.78
2023-06-30T21:24:04.559Z,2.72
2023-06-30T21:26:44.716Z,3.70
2023-06-30T21:29:19.778Z,2.85
2023-06-30T21:31:57.907Z,3.83
2023-06-30T21:34:32.549Z,2.58
2023-06-30T21:37:12.740Z,2.92
2023-06-30T21:39:55.635Z,2.92
2023-06-30T21:42:39.936Z,3.45
2023-06-30T21:45:15.620Z,3.15
2023-06-30T21:47:42.716Z,3.78
2023-06-30T21:50:22.871Z,3.33
2023-06-30T21:53:00.032Z,3.53
2023-06-30T21:55:36.335Z,2.80
2023-06-30T21:58:26.815Z,3.17
2023-06-30T22:01:20.195Z,2.63
2023-06-30T22:03:58.228Z,2.92
2023-06-30T22:06:35.750Z,2.65
2023-06-30T22:09:16.276Z,2.88
2023-06-30T22:12:08.527Z,2.92
2023-06-30T22:14:44.329Z,3.15
2023-06-30T22:17:19.374Z,2.97
2023-06-30T22:19:58.447Z,2.97
2023-06-30T22:22:32.921Z,2.75
2023-06-30T22:25:04.988Z,3.40
2023-06-30T22:27:43.325Z,3.00
2023-06-30T22:30:29.063Z,3.00
2023-06-30T22:33:00.374Z,3.17
2023-06-30T22:35:35.676Z,3.05
2023-06-30T22:38:17.370Z,2.75
2023-06-30T22:40:55.071Z,3.30
2023-06-30T22:43:35.060Z,2.78
2023-06-30T22:46:13.524Z,2.88
2023-06-30T22:48:59.503Z,2.83
2023-06-30T22:51:33.445Z,2.95
2023-06-30T22:54:10.512Z,3.10
2023-06-30T22:56:51.920Z,2.80
2023-06-30T22:59:22.885Z,2.30
2023-06-30T23:02:01.378Z,2.45
2023-06-30T23:04:39.011Z,2.75
2023-06-30T23:07:11.345Z,1.98
2023-06-30T23:09:50.257Z,2.95
2023-06-30T23:12:24.929Z,2.22
2023-06-30T23:14:56.900Z,2.72
2023-06-30T23:17:33.565Z,2.75
2023-06-30T23:20:04.524Z,2.55
2023-06-30T23:22:47.438Z,2.63
2023-06-30T23:25:27.130Z,2.38
2023-06-30T23:28:09.231Z,3.95
2023-06-30T23:30:49.068Z,2.13
2023-06-30T23:33:18.591Z,2.35
2023-06-30T23:35:53.117Z,2.30
2023-06-30T23:38:29.136Z,2.28
2023-06-30T23:41:17.107Z,2.25
2023-06-30T23:43:53.094Z,2.45
2023-06-30T23:46:30.282Z,2.38
2023-06-30T23:49:03.200Z,2.00
2023-06-30T23:51:45.203Z,2.80
2023-06-30T23:54:17.584Z,2.50
2023-06-30T23:56:49.967Z,2.83
2023-06-30T23:59:22.853Z,2.10
